Latest Weather Observations for Julia Creek

IDQ60801

Issued at 8:02 am EST Monday 26 January 2015 (issued every 30 minutes, with the page automatically refreshed every 10 minutes)

About weather observations | Map of weather stations | Latest weather observations for QLD | Other Formats
Station Details ID: 029058 Name: JULIA CREEK AIRPORT Lat: -20.67 Lon: 141.72 Height: 122.5 m
Data from the previous 72 hours. | See also: Recent months at Julia Creek
Date/Time
EST
Temp
°C
App
Temp
°C
Dew
Point
Rel
Hum
%
Delta-T
°C
Wind Press
QNH
hPa
Press
MSL
hPa
Rain
since 9 am
mm
Dir
 
Spd
km/h
Gust
km/h
Spd
kts
Gust
kts
26/08:00am 29.0 30.6 20.7 61 5.5 NW 13 17 7 9 1008.7 1007.8 0.0
26/07:30am 28.1 30.4 20.6 63 5.0 NNW 9 11 5 6 1008.6 1007.7 0.0
26/07:00am 25.7 29.2 19.6 69 4.0 CALM 0 0 0 0 1008.3 1007.4 0.0
26/06:30am 24.0 27.1 18.6 72 3.4 CALM 0 0 0 0 1007.8 1006.8 0.0
26/06:00am 24.2 26.0 18.8 72 3.5 NE 7 9 4 5 1007.3 1006.3 0.0
26/05:30am 25.1 28.6 19.5 71 3.6 CALM 0 0 0 0 1007.0 1006.0 0.0
26/05:00am 25.7 27.6 18.9 66 4.4 W 7 9 4 5 1006.6 1005.6 0.0
26/04:30am 26.6 28.7 19.0 63 4.9 N 6 9 3 5 1006.1 1005.1 0.0
26/04:00am 27.4 29.3 18.9 59 5.5 NNW 7 11 4 6 1005.9 1004.9 0.0
26/03:30am 27.6 29.1 18.9 59 5.6 N 9 13 5 7 1006.0 1005.0 0.0
26/03:00am 26.9 28.9 18.7 60 5.3 N 6 7 3 4 1005.9 1004.9 0.0
26/02:30am 27.5 29.4 18.5 58 5.8 N 6 6 3 3 1005.9 1004.9 0.0
26/02:00am 28.0 30.6 18.4 56 6.2 NNW 2 6 1 3 1006.4 1005.4 0.0
26/01:30am 28.5 30.2 18.6 55 6.4 WSW 7 9 4 5 1006.6 1005.6 0.0
26/01:00am 28.0 30.0 18.7 57 6.0 WNW 6 7 3 4 1006.8 1005.8 0.0
26/12:30am 28.5 30.4 18.6 55 6.4 W 6 7 3 4 1007.0 1006.0 0.0
26/12:00am 29.1 30.8 18.5 52 6.9 NNW 7 13 4 7 1007.5 1006.5 0.0
 
Date/Time
EST
Temp
°C
App
Temp
°C
Dew
Point
Rel
Hum
%
Delta-T
°C
Wind Press
QNH
hPa
Press
MSL
hPa
Rain
since 9 am
mm
Dir
 
Spd
km/h
Gust
km/h
Spd
kts
Gust
kts
25/11:30pm 29.2 31.5 18.6 52 6.8 N 4 6 2 3 1007.4 1006.4 0.0
25/11:00pm 29.8 32.5 18.6 51 7.3 SW 2 6 1 3 1007.1 1006.1 0.0
25/10:30pm 30.2 33.0 18.9 50 7.4 NNW 2 4 1 2 1006.9 1005.9 0.0
25/10:00pm 30.9 32.3 18.6 48 8.0 W 9 11 5 6 1006.7 1005.7 0.0
25/09:30pm 31.7 32.4 19.7 49 7.9 WNW 15 22 8 12 1006.3 1005.3 0.0
25/09:00pm 32.5 34.4 19.7 46 8.5 WNW 9 13 5 7 1005.2 1004.3 0.0
25/08:30pm 33.0 34.0 19.5 45 8.9 NW 13 17 7 9 1004.9 1004.0 0.0
25/08:00pm 34.5 33.9 19.7 41 9.9 N 22 32 12 17 1004.8 1003.9 0.0
25/07:30pm 34.5 37.0 18.1 37 10.7 NNE 2 6 1 3 1004.3 1003.4 0.0
25/07:00pm 35.6 37.2 18.2 35 11.4 SSE 7 9 4 5 1003.8 1002.9 0.0
25/06:30pm 36.4 36.4 18.0 33 12.0 S 15 20 8 11 1003.9 1003.0 0.0
25/06:00pm 37.7 39.7 19.1 33 12.4 WSW 7 13 4 7 1003.6 1002.7 0.0
25/05:30pm 39.0 40.7 19.3 31 13.2 W 9 15 5 8 1002.9 1002.0 0.0
25/05:00pm 38.7 41.3 20.5 34 12.4 NW 7 17 4 9 1003.1 1002.2 0.0
25/04:30pm 38.5 40.7 20.3 34 12.3 WNW 9 19 5 10 1003.5 1002.6 0.0
25/04:00pm 38.7 40.6 20.5 34 12.4 W 11 20 6 11 1003.8 1002.9 0.0
25/03:30pm 38.1 39.4 20.9 37 11.7 NW 15 28 8 15 1004.4 1003.5 0.0
25/03:00pm 37.9 39.1 20.7 36 11.7 NW 15 24 8 13 1004.9 1004.0 0.0
25/02:30pm 38.2 39.1 20.9 36 11.8 WNW 17 24 9 13 1005.2 1004.3 0.0
25/02:00pm 38.0 39.5 21.2 37 11.5 WNW 15 28 8 15 1005.8 1004.8 0.0
25/01:30pm 37.5 39.4 22.0 40 10.7 NW 15 26 8 14 1006.3 1005.3 0.0
25/01:00pm 37.5 38.6 22.0 40 10.7 WNW 19 30 10 16 1006.9 1005.9 0.0
25/12:30pm 36.5 38.2 23.4 47 9.2 NW 20 32 11 17 1007.4 1006.4 0.0
25/12:00pm 34.9 35.4 21.9 46 8.9 NNW 22 37 12 20 1007.9 1006.9 0.0
25/11:30am 34.9 35.8 22.6 49 8.5 NW 22 35 12 19 1008.1 1007.2 0.0
25/11:00am 33.8 34.8 22.9 53 7.6 NW 22 37 12 20 1008.5 1007.6 0.0
25/10:30am 33.0 34.3 23.3 56 6.7 NW 22 33 12 18 1008.6 1007.7 0.0
25/10:00am 32.4 33.7 23.4 59 6.3 NW 22 32 12 17 1009.0 1008.1 0.0
25/09:30am 31.3 32.6 23.4 63 5.5 NW 22 30 12 16 1009.0 1008.1 0.0
25/09:00am 30.0 31.2 23.2 67 4.7 NNW 22 32 12 17 1009.3 1008.4 0.6
25/08:30am 29.3 30.8 23.7 72 3.9 NNW 22 28 12 15 1009.4 1008.5 0.6
25/08:00am 28.1 30.0 23.7 77 3.0 N 20 28 11 15 1009.1 1008.2 0.6
25/07:30am 27.4 29.1 23.4 79 2.7 NNW 20 28 11 15 1008.9 1008.0 0.6
25/07:00am 27.0 28.7 23.0 79 2.7 N 19 24 10 13 1008.8 1007.9 0.6
25/06:30am 26.8 28.6 22.6 78 2.9 NNW 17 26 9 14 1008.2 1007.3 0.6
25/06:00am 27.0 28.3 22.4 76 3.1 NNW 19 26 10 14 1007.7 1006.7 0.6
25/05:30am 27.1 28.7 22.1 74 3.4 NNW 17 24 9 13 1007.1 1006.1 0.6
25/05:00am 27.3 28.6 22.3 74 3.4 NNW 19 26 10 14 1006.8 1005.8 0.6
25/04:30am 27.4 28.7 22.6 75 3.3 NNW 20 28 11 15 1006.3 1005.3 0.6
25/04:00am 27.7 28.0 22.9 75 3.3 NNW 26 39 14 21 1006.0 1005.0 0.6
25/03:30am 28.0 28.2 22.7 73 3.6 NW 26 35 14 19 1005.9 1004.9 0.6
25/03:00am 28.6 28.3 22.6 70 4.1 NW 28 37 15 20 1005.9 1004.9 0.6
25/02:30am 29.0 29.2 22.7 69 4.3 NNW 26 35 14 19 1006.0 1005.0 0.6
25/02:00am 29.3 29.5 22.8 68 4.5 NNW 26 33 14 18 1006.0 1005.0 0.6
25/01:30am 29.7 30.6 22.7 66 4.8 NNW 22 35 12 19 1006.2 1005.2 0.6
25/01:00am 30.4 31.7 22.6 63 5.4 NNW 20 28 11 15 1006.5 1005.5 0.6
25/12:30am 30.7 30.4 21.8 59 6.0 NNW 26 35 14 19 1006.4 1005.4 0.6
25/12:00am 31.4 31.4 21.6 56 6.7 NNW 24 32 13 17 1006.3 1005.3 0.6
 
Date/Time
EST
Temp
°C
App
Temp
°C
Dew
Point
Rel
Hum
%
Delta-T
°C
Wind Press
QNH
hPa
Press
MSL
hPa
Rain
since 9 am
mm
Dir
 
Spd
km/h
Gust
km/h
Spd
kts
Gust
kts
24/11:30pm 31.9 31.6 21.1 52 7.3 N 24 32 13 17 1006.4 1005.4 0.6
24/11:00pm 32.4 33.9 21.3 52 7.5 N 15 20 8 11 1006.3 1005.3 0.6
24/10:30pm 32.7 33.8 21.2 50 7.8 NNW 17 24 9 13 1006.2 1005.2 0.6
24/10:00pm 33.2 34.0 20.7 47 8.4 N 17 22 9 12 1005.8 1004.8 0.6
24/09:30pm 33.8 34.2 20.6 46 8.9 N 19 24 10 13 1005.8 1004.8 0.6
24/09:00pm 33.9 35.3 20.3 45 9.1 NNW 13 19 7 10 1005.7 1004.7 0.6
24/08:30pm 33.1 35.1 19.9 45 8.8 N 9 11 5 6 1005.1 1004.2 0.6
24/08:00pm 33.3 35.2 19.7 44 9.1 NNW 9 9 5 5 1004.5 1003.6 0.6
24/07:30pm 34.1 36.0 19.7 42 9.6 NNW 9 13 5 7 1004.1 1003.2 0.6
24/07:00pm 35.1 36.3 19.9 41 10.2 NW 13 17 7 9 1003.7 1002.8 0.6
24/06:30pm 36.2 37.4 20.0 38 10.9 NW 13 15 7 8 1003.2 1002.3 0.6
24/06:00pm 36.8 37.9 19.7 36 11.5 NW 13 17 7 9 1003.1 1002.2 0.6
24/05:30pm 37.0 37.2 19.4 35 11.8 NW 17 20 9 11 1003.1 1002.2 0.6
24/05:00pm 37.9 38.1 20.2 35 12.0 NW 19 28 10 15 1002.8 1001.9 0.6
24/04:30pm 37.4 37.4 19.8 35 11.8 NW 19 28 10 15 1002.6 1001.7 0.6
24/04:00pm 37.0 37.9 21.9 41 10.4 NNW 20 30 11 16 1002.7 1001.8 0.6
24/03:30pm 34.9 36.9 22.2 47 8.7 NNW 15 24 8 13 1002.9 1002.0 0.6
24/03:00pm 37.0 38.2 20.7 38 11.1 NW 15 26 8 14 1003.5 1002.6 0.0
24/02:30pm 37.4 37.8 20.7 38 11.4 NW 19 26 10 14 1003.9 1003.0 0.0
24/02:00pm 37.6 37.9 20.8 37 11.5 NNW 20 35 11 19 1004.4 1003.5 0.0
24/01:30pm 37.1 36.6 20.8 38 11.1 NW 24 35 13 19 1004.5 1003.6 0.0
24/01:00pm 36.8 36.4 21.0 40 10.8 NNW 24 37 13 20 1005.0 1004.1 0.0
24/12:30pm 35.9 36.3 21.7 43 9.7 NNW 22 32 12 17 1005.4 1004.5 0.0
24/12:00pm 35.9 36.7 22.5 46 9.3 NNW 22 33 12 18 1005.7 1004.7 0.0
24/11:30am 35.7 36.2 22.6 46 9.1 NNW 24 35 13 19 1006.0 1005.0 0.0
24/11:00am 34.8 34.9 21.8 46 8.9 NNW 24 33 13 18 1006.2 1005.2 0.0
24/10:30am 33.6 34.1 22.7 53 7.5 NNW 24 35 13 19 1006.3 1005.3 0.0
24/10:00am 33.1 34.0 23.4 56 6.8 NNW 24 35 13 19 1006.4 1005.4 0.0
24/09:30am 31.7 32.5 23.8 63 5.5 NNW 26 33 14 18 1006.5 1005.5 0.0
24/09:00am 30.7 32.0 24.1 68 4.6 NNW 24 32 13 17 1006.4 1005.4 0.0
24/08:30am 29.4 31.4 24.5 75 3.4 NNW 22 32 12 17 1006.2 1005.2 0.0
24/08:00am 29.3 31.2 24.4 75 3.4 NNW 22 32 12 17 1006.0 1005.0 0.0
24/07:30am 28.4 30.8 24.6 80 2.7 NNW 20 26 11 14 1005.6 1004.6 0.0
24/07:00am 27.7 30.6 24.5 83 2.2 NNW 17 24 9 13 1005.1 1004.2 0.0
24/06:30am 27.4 30.6 24.3 83 2.2 NNW 15 22 8 12 1004.6 1003.7 0.0
24/06:00am 27.5 30.1 23.9 81 2.5 NNW 17 20 9 11 1004.3 1003.4 0.0
24/05:30am 27.6 30.4 23.6 79 2.8 NNW 15 20 8 11 1003.9 1003.0 0.0
24/05:00am 27.9 29.8 23.5 77 3.0 NNW 19 26 10 14 1003.8 1002.9 0.0
24/04:30am 28.5 30.4 23.4 74 3.5 NNW 19 24 10 13 1003.7 1002.8 0.0
24/04:00am 28.8 30.8 23.0 71 4.0 NNW 17 24 9 13 1003.5 1002.6 0.0
24/03:30am 28.9 30.6 23.1 71 4.0 NNW 19 24 10 13 1003.4 1002.5 0.0
24/03:00am 29.1 30.8 23.1 70 4.1 NNW 19 24 10 13 1003.4 1002.5 0.0
24/02:30am 29.4 30.7 22.6 67 4.6 NNW 20 28 11 15 1003.4 1002.5 0.0
24/02:00am 29.8 31.1 22.3 64 5.1 NNW 19 28 10 15 1003.4 1002.5 0.0
24/01:30am 29.8 31.8 22.3 64 5.1 NNW 15 19 8 10 1003.5 1002.6 0.0
24/01:00am 29.5 31.7 21.2 61 5.6 NNW 11 15 6 8 1003.6 1002.7 0.0
24/12:30am 29.6 31.6 20.7 58 5.9 N 11 15 6 8 1003.7 1002.8 0.0
24/12:00am 29.3 31.6 20.7 59 5.7 N 9 13 5 7 1003.9 1003.0 0.0
 
Date/Time
EST
Temp
°C
App
Temp
°C
Dew
Point
Rel
Hum
%
Delta-T
°C
Wind Press
QNH
hPa
Press
MSL
hPa
Rain
since 9 am
mm
Dir
 
Spd
km/h
Gust
km/h
Spd
kts
Gust
kts
23/11:30pm 29.6 31.6 20.7 58 5.9 NNE 11 15 6 8 1004.1 1003.2 0.0
23/11:00pm 29.9 31.9 20.7 57 6.2 NNE 11 19 6 10 1004.3 1003.4 0.0
23/10:30pm 30.7 32.4 20.9 56 6.6 NNE 13 17 7 9 1004.1 1003.2 0.0
23/10:00pm 32.0 32.4 20.6 51 7.7 NNE 19 26 10 14 1003.7 1002.8 0.0
23/09:30pm 33.2 34.0 18.2 41 9.8 NNE 11 15 6 8 1003.4 1002.5 0.0
23/09:00pm 32.7 33.5 17.3 39 9.9 NNW 9 11 5 6 1002.8 1001.9 0.0
23/08:30pm 32.6 33.6 16.8 38 10.1 NNW 7 9 4 5 1002.3 1001.4 0.0
23/08:00pm 33.2 34.3 16.5 36 10.6 NW 6 7 3 4 1001.9 1001.0 0.0
23/07:30pm 34.6 35.3 16.0 33 11.8 W 7 9 4 5 1001.5 1000.6 0.0
23/07:00pm 36.5 36.4 15.0 27 13.6 W 9 13 5 7 1001.1 1000.2 0.0
23/06:30pm 37.7 36.2 13.0 23 15.2 W 13 17 7 9 1000.8 999.9 0.0
23/06:00pm 38.0 37.0 14.5 24 14.8 W 13 19 7 10 1000.5 999.5 0.0
23/05:30pm 38.2 37.3 15.9 26 14.3 W 15 24 8 13 1000.3 999.3 0.0
23/05:00pm 37.6 37.1 16.0 28 13.9 NW 13 20 7 11 1000.2 999.2 0.0
23/04:30pm 37.6 37.3 16.5 28 13.6 NW 13 22 7 12 1000.2 999.2 0.0
23/04:00pm 38.3 36.8 17.7 30 13.6 NNW 22 28 12 15 1000.3 999.3 0.0
23/03:30pm 37.2 35.4 18.7 33 12.3 NNW 26 37 14 20 1000.6 999.6 0.0
23/03:00pm 37.9 36.4 16.8 29 13.7 WNW 20 30 11 16 1000.9 1000.0 0.0
23/02:30pm 38.0 38.0 18.9 32 12.7 NNW 17 28 9 15 1001.1 1000.2 0.0
23/02:00pm 37.8 38.3 19.2 33 12.5 NW 15 24 8 13 1001.4 1000.5 0.0
23/01:30pm 37.4 39.5 20.2 36 11.6 NW 9 26 5 14 1001.7 1000.8 0.0
23/01:00pm 36.7 38.8 20.1 38 11.2 NW 9 20 5 11 1002.1 1001.2 0.0
23/12:30pm 35.7 36.8 19.6 39 10.7 NNW 13 22 7 12 1002.4 1001.5 0.0
23/12:00pm 35.5 37.4 21.4 44 9.7 NNW 13 28 7 15 1002.7 1001.8 0.0
23/11:30am 34.0 34.8 20.7 45 9.0 NNW 17 30 9 16 1003.2 1002.3 0.0
23/11:00am 33.4 34.1 21.2 48 8.3 NNW 19 28 10 15 1003.4 1002.5 0.0
23/10:30am 33.0 34.3 22.7 54 7.1 NNW 20 28 11 15 1003.6 1002.7 0.0
23/10:00am 31.5 32.3 22.5 59 6.2 N 22 30 12 16 1003.9 1003.0 0.0
23/09:30am 30.6 31.1 22.7 62 5.4 NNW 24 32 13 17 1003.9 1003.0 0.0
23/09:00am 29.8 30.8 22.8 66 4.8 NNW 22 32 12 17 1003.9 1003.0 0.0
23/08:30am 28.8 29.4 22.8 70 4.1 N 24 32 13 17 1003.8 1002.9 0.0

Other Formats:

Comma delimited format used in spreadsheet applications
http://www.bom.gov.au/fwo/IDQ60801/IDQ60801.94337.axf

JavaScript Object Notation format (JSON) in row-major order
http://www.bom.gov.au/fwo/IDQ60801/IDQ60801.94337.json